Time;durP1;ratioP1;P1;durP2;ratioP2;P2;SDS_P1;SDS_P2;PMS_P1;PMS_P2;Temp;Humidity;BMP_temperature;BMP_pressure;BME280_temperature;BME280_humidity;BME280_pressure;Samples;Min_cycle;Max_cycle;Signal;HPM_P1;HPM_P2
2022/05/31 00:01:13;;;;;;;17.27;7.53;;;;;;;;;;5015210;28;20029;-40
2022/05/31 00:03:39;;;;;;;10.52;6.47;;;;;;;;;;4999009;28;20022;-40
2022/05/31 00:06:05;;;;;;;19.63;7.82;;;;;;;;;;5015339;28;20031;-40
2022/05/31 00:08:32;;;;;;;10.38;6.28;;;;;;;;;;5015061;28;20083;-40
2022/05/31 00:11:00;;;;;;;13.48;6.88;;;;;;;;;;5016507;28;20018;-39
2022/05/31 00:13:26;;;;;;;11.57;7.25;;;;;;;;;;5016078;28;20022;-40
2022/05/31 00:15:51;;;;;;;10.32;6.22;;;;;;;;;;5015142;28;20354;-40
2022/05/31 00:18:17;;;;;;;15.13;6.45;;;;;;;;;;5014942;28;20537;-40
2022/05/31 00:20:42;;;;;;;21.23;7.45;;;;;;;;;;5016006;28;20022;-40
2022/05/31 00:23:08;;;;;;;11.43;6.50;;;;;;;;;;5016067;28;20068;-39
2022/05/31 00:25:33;;;;;;;13.15;6.95;;;;;;;;;;5014800;28;20014;-39
2022/05/31 00:27:59;;;;;;;10.15;6.90;;;;;;;;;;5014604;28;20022;-40
2022/05/31 00:30:24;;;;;;;12.30;5.97;;;;;;;;;;5014778;28;20204;-40
2022/05/31 00:32:50;;;;;;;12.68;6.57;;;;;;;;;;5014766;28;20370;-40
2022/05/31 00:35:18;;;;;;;12.57;5.75;;;;;;;;;;5016028;28;20366;-40
2022/05/31 00:37:44;;;;;;;9.57;5.70;;;;;;;;;;5014735;28;20431;-40
2022/05/31 00:40:11;;;;;;;9.45;5.50;;;;;;;;;;5014513;28;20054;-39
2022/05/31 00:42:51;;;;;;;14.32;6.90;;;;;;;;;;5015485;28;20080;-39
2022/05/31 00:45:16;;;;;;;10.45;6.30;;;;;;;;;;5015817;28;20030;-39
2022/05/31 00:47:42;;;;;;;10.25;5.82;;;;;;;;;;5015664;28;20428;-39
2022/05/31 00:50:12;;;;;;;11.40;5.85;;;;;;;;;;5026489;28;20025;-40
2022/05/31 00:52:43;;;;;;;16.02;6.88;;;;;;;;;;5035405;28;20068;-39
2022/05/31 00:55:08;;;;;;;14.80;8.27;;;;;;;;;;5033781;28;20021;-40
2022/05/31 00:57:35;;;;;;;15.60;8.60;;;;;;;;;;5035115;28;20108;-39
2022/05/31 01:00:04;;;;;;;15.98;8.25;;;;;;;;;;5034485;28;20345;-39
2022/05/31 01:02:30;;;;;;;14.25;7.93;;;;;;;;;;5034916;28;20036;-40
2022/05/31 01:05:04;;;;;;;12.90;6.97;;;;;;;;;;5033927;28;20025;-39
2022/05/31 01:07:29;;;;;;;14.32;6.80;;;;;;;;;;5034964;28;20026;-40
2022/05/31 01:09:55;;;;;;;13.63;8.18;;;;;;;;;;5034859;28;20444;-39
2022/05/31 01:12:21;;;;;;;15.13;8.18;;;;;;;;;;5035356;28;20104;-39
2022/05/31 01:14:46;;;;;;;15.95;8.68;;;;;;;;;;5034926;28;20094;-39
2022/05/31 01:17:16;;;;;;;12.50;7.47;;;;;;;;;;5033612;28;20472;-39
2022/05/31 01:19:57;;;;;;;13.68;7.28;;;;;;;;;;5033503;28;20484;-39
2022/05/31 01:22:32;;;;;;;17.50;7.63;;;;;;;;;;5033251;28;20396;-39
2022/05/31 01:25:16;;;;;;;12.48;6.63;;;;;;;;;;5034658;28;20022;-39
2022/05/31 01:27:48;;;;;;;13.73;7.47;;;;;;;;;;5033819;28;20079;-39
2022/05/31 01:30:14;;;;;;;13.68;7.57;;;;;;;;;;5033339;28;20025;-39
2022/05/31 01:32:43;;;;;;;10.18;6.93;;;;;;;;;;5033146;28;20021;-40
2022/05/31 01:35:11;;;;;;;12.38;7.65;;;;;;;;;;5033500;28;20480;-39
2022/05/31 01:37:43;;;;;;;10.87;6.93;;;;;;;;;;5033274;28;20025;-39
2022/05/31 01:40:12;;;;;;;13.43;6.95;;;;;;;;;;5034421;28;20135;-39
2022/05/31 01:42:40;;;;;;;11.48;7.03;;;;;;;;;;5034336;28;20130;-39
2022/05/31 01:45:08;;;;;;;19.35;7.20;;;;;;;;;;5032930;28;20096;-39
2022/05/31 01:47:34;;;;;;;14.18;7.00;;;;;;;;;;5034045;28;20030;-39
2022/05/31 01:49:59;;;;;;;16.75;6.95;;;;;;;;;;5034215;28;20017;-39
2022/05/31 01:52:25;;;;;;;12.15;6.63;;;;;;;;;;5033097;28;20021;-39
2022/05/31 01:54:51;;;;;;;11.82;6.57;;;;;;;;;;5034276;28;20057;-39
2022/05/31 01:57:17;;;;;;;12.60;7.93;;;;;;;;;;5034104;28;20025;-39
2022/05/31 01:59:46;;;;;;;12.57;7.00;;;;;;;;;;5032741;28;20018;-39
2022/05/31 02:02:15;;;;;;;15.18;8.38;;;;;;;;;;5032503;28;20039;-39
2022/05/31 02:04:40;;;;;;;12.07;8.30;;;;;;;;;;5032778;28;20453;-39
2022/05/31 02:07:12;;;;;;;13.90;8.35;;;;;;;;;;5034129;28;20037;-40
2022/05/31 02:09:39;;;;;;;12.52;7.97;;;;;;;;;;5032497;28;20064;-39
2022/05/31 02:12:05;;;;;;;13.95;8.85;;;;;;;;;;5032162;28;20030;-39
2022/05/31 02:14:30;;;;;;;17.80;8.95;;;;;;;;;;5032322;28;20522;-39
2022/05/31 02:16:56;;;;;;;17.67;9.32;;;;;;;;;;5032413;28;20021;-39
2022/05/31 02:19:25;;;;;;;15.05;8.40;;;;;;;;;;5032581;28;20026;-39
2022/05/31 02:21:50;;;;;;;;;;;;;;;;;;5034183;28;20030;-39
2022/05/31 02:24:16;;;;;;;17.15;9.50;;;;;;;;;;5033946;28;19951;-39
2022/05/31 02:26:42;;;;;;;15.23;8.85;;;;;;;;;;5032302;28;20045;-39
2022/05/31 02:29:12;;;;;;;15.63;9.05;;;;;;;;;;5032125;28;20025;-39
2022/05/31 02:31:39;;;;;;;16.80;9.10;;;;;;;;;;5033266;28;20048;-39
2022/05/31 02:34:05;;;;;;;14.68;8.98;;;;;;;;;;5033577;28;20445;-39
2022/05/31 02:36:31;;;;;;;17.17;9.55;;;;;;;;;;5032743;28;20064;-39
2022/05/31 02:38:56;;;;;;;12.75;8.20;;;;;;;;;;5033260;28;20429;-40
2022/05/31 02:41:21;;;;;;;18.10;8.13;;;;;;;;;;5031942;28;20479;-39
2022/05/31 02:43:47;;;;;;;17.65;8.48;;;;;;;;;;5033405;28;20431;-39
2022/05/31 02:46:12;;;;;;;15.93;8.55;;;;;;;;;;5031639;28;20445;-39
2022/05/31 02:48:38;;;;;;;13.73;7.35;;;;;;;;;;5032068;28;20021;-40
2022/05/31 02:51:03;;;;;;;12.13;7.93;;;;;;;;;;5031923;28;20044;-39
2022/05/31 02:53:29;;;;;;;15.50;8.68;;;;;;;;;;5031967;28;20021;-39
2022/05/31 02:55:55;;;;;;;20.00;8.98;;;;;;;;;;5033046;28;20017;-39
2022/05/31 02:58:20;;;;;;;17.73;9.98;;;;;;;;;;5033033;28;20067;-41
2022/05/31 03:00:46;;;;;;;14.60;8.82;;;;;;;;;;5031761;28;20208;-39
2022/05/31 03:03:11;;;;;;;17.35;8.68;;;;;;;;;;5031671;28;20029;-39
2022/05/31 03:05:36;;;;;;;14.55;8.98;;;;;;;;;;5032864;28;20029;-39
2022/05/31 03:08:03;;;;;;;17.08;9.68;;;;;;;;;;5031654;28;20026;-39
2022/05/31 03:10:31;;;;;;;20.52;10.63;;;;;;;;;;5032983;28;20022;-39
2022/05/31 03:12:57;;;;;;;22.05;9.77;;;;;;;;;;5032843;28;20025;-39
2022/05/31 03:15:24;;;;;;;23.85;10.32;;;;;;;;;;5031395;28;20048;-39
2022/05/31 03:17:58;;;;;;;22.13;11.18;;;;;;;;;;5032826;28;20383;-39
2022/05/31 03:20:31;;;;;;;21.33;11.38;;;;;;;;;;5032731;28;20034;-39
2022/05/31 03:23:01;;;;;;;21.23;11.05;;;;;;;;;;5032744;28;20507;-39
2022/05/31 03:25:27;;;;;;;23.92;11.65;;;;;;;;;;5035641;28;20021;-38
2022/05/31 03:27:56;;;;;;;27.58;12.50;;;;;;;;;;5035462;28;20045;-38
2022/05/31 03:30:21;;;;;;;29.92;13.30;;;;;;;;;;5035626;28;20026;-38
2022/05/31 03:32:47;;;;;;;22.35;12.27;;;;;;;;;;5036776;28;20108;-39
2022/05/31 03:35:12;;;;;;;26.30;12.00;;;;;;;;;;5036673;28;20021;-39
2022/05/31 03:37:38;;;;;;;20.60;11.13;;;;;;;;;;5036681;28;20022;-39
2022/05/31 03:40:04;;;;;;;25.98;11.45;;;;;;;;;;5036688;28;20041;-39
2022/05/31 03:42:30;;;;;;;25.00;12.27;;;;;;;;;;5035178;28;20144;-38
2022/05/31 03:44:57;;;;;;;23.40;10.43;;;;;;;;;;5035332;28;20018;-38
2022/05/31 03:47:22;;;;;;;18.33;10.15;;;;;;;;;;5036516;28;20032;-40
2022/05/31 03:49:48;;;;;;;16.65;9.85;;;;;;;;;;5035340;28;20017;-38
2022/05/31 03:52:13;;;;;;;25.13;10.65;;;;;;;;;;5035167;28;20022;-37
2022/05/31 03:54:39;;;;;;;20.20;10.38;;;;;;;;;;5036569;28;20029;-39
2022/05/31 03:57:11;;;;;;;21.73;10.52;;;;;;;;;;5034754;28;20037;-38
2022/05/31 03:59:37;;;;;;;20.67;10.95;;;;;;;;;;5036726;28;20033;-38
2022/05/31 04:02:04;;;;;;;24.35;11.68;;;;;;;;;;5035041;28;20026;-39
2022/05/31 04:04:29;;;;;;;27.13;11.52;;;;;;;;;;5034986;28;20021;-39
2022/05/31 04:06:54;;;;;;;24.00;10.55;;;;;;;;;;5036118;28;20379;-37
2022/05/31 04:09:20;;;;;;;21.98;11.15;;;;;;;;;;5034797;28;20408;-40
2022/05/31 04:11:45;;;;;;;22.60;10.88;;;;;;;;;;5036169;28;20373;-39
2022/05/31 04:14:10;;;;;;;16.63;10.30;;;;;;;;;;5036198;28;20013;-39
2022/05/31 04:16:36;;;;;;;21.23;10.90;;;;;;;;;;5034882;28;20083;-39
2022/05/31 04:19:01;;;;;;;18.35;9.32;;;;;;;;;;5034752;28;20021;-39
2022/05/31 04:21:27;;;;;;;17.63;10.20;;;;;;;;;;5035832;28;20029;-38
2022/05/31 04:23:58;;;;;;;21.35;10.52;;;;;;;;;;5034582;28;20021;-39
2022/05/31 04:26:24;;;;;;;19.38;9.23;;;;;;;;;;5034332;28;20017;-39
2022/05/31 04:28:49;;;;;;;16.70;8.68;;;;;;;;;;5036124;28;20061;-38
2022/05/31 04:31:15;;;;;;;12.90;7.72;;;;;;;;;;5034554;28;20468;-38
2022/05/31 04:33:40;;;;;;;17.10;9.23;;;;;;;;;;5035713;28;20013;-39
2022/05/31 04:36:08;;;;;;;15.73;8.30;;;;;;;;;;5035320;28;20460;-38
2022/05/31 04:38:33;;;;;;;19.25;9.95;;;;;;;;;;5034272;28;20018;-39
2022/05/31 04:40:59;;;;;;;15.05;9.40;;;;;;;;;;5033929;28;20045;-38
2022/05/31 04:43:24;;;;;;;17.40;8.68;;;;;;;;;;5034185;28;20045;-38
2022/05/31 04:45:50;;;;;;;16.05;8.18;;;;;;;;;;5035247;28;20060;-39
2022/05/31 04:48:15;;;;;;;14.48;8.70;;;;;;;;;;5035704;28;20100;-39
2022/05/31 04:50:40;;;;;;;14.18;8.10;;;;;;;;;;5035511;28;20032;-38
2022/05/31 04:53:06;;;;;;;16.80;8.48;;;;;;;;;;5034229;28;20372;-39
2022/05/31 04:55:31;;;;;;;22.25;8.90;;;;;;;;;;5035318;28;20025;-39
2022/05/31 04:57:56;;;;;;;18.35;8.82;;;;;;;;;;5034041;28;20025;-38
2022/05/31 05:00:22;;;;;;;16.55;8.70;;;;;;;;;;5034058;28;20136;-39
2022/05/31 05:02:47;;;;;;;13.60;7.72;;;;;;;;;;5033820;28;20076;-39
2022/05/31 05:05:13;;;;;;;16.42;8.20;;;;;;;;;;5035325;28;20041;-39
2022/05/31 05:07:38;;;;;;;29.00;8.32;;;;;;;;;;5033836;28;20057;-39
2022/05/31 05:10:04;;;;;;;17.08;8.38;;;;;;;;;;5033609;28;20024;-40
2022/05/31 05:12:30;;;;;;;13.07;7.53;;;;;;;;;;5033560;28;20025;-38
2022/05/31 05:14:55;;;;;;;16.25;8.07;;;;;;;;;;5033886;28;20326;-38
2022/05/31 05:17:22;;;;;;;22.23;9.27;;;;;;;;;;5034752;28;20484;-38
2022/05/31 05:19:47;;;;;;;17.13;7.93;;;;;;;;;;5034842;28;20021;-39
2022/05/31 05:22:13;;;;;;;19.65;8.63;;;;;;;;;;5033643;28;20075;-38
2022/05/31 05:24:39;;;;;;;18.90;9.32;;;;;;;;;;5033393;28;20022;-39
2022/05/31 05:27:04;;;;;;;19.35;8.50;;;;;;;;;;5033308;28;20025;-38
2022/05/31 05:32:14;;;;;;;17.58;8.52;;;;;;;;;;5034367;28;20033;-38
2022/05/31 05:34:39;;;;;;;15.07;8.23;;;;;;;;;;5033176;28;20022;-38
2022/05/31 05:37:04;;;;;;;18.67;8.35;;;;;;;;;;5034194;28;20488;-38
2022/05/31 05:39:29;;;;;;;15.35;8.23;;;;;;;;;;5032249;28;21122;-38
2022/05/31 05:41:55;;;;;;;12.70;7.28;;;;;;;;;;5032096;28;20037;-38
2022/05/31 05:44:20;;;;;;;13.88;6.35;;;;;;;;;;5034573;28;20408;-38
2022/05/31 05:46:46;;;;;;;11.90;7.10;;;;;;;;;;5032373;28;20025;-38
2022/05/31 05:49:12;;;;;;;14.52;8.32;;;;;;;;;;5034254;28;20532;-38
2022/05/31 05:51:37;;;;;;;10.52;6.32;;;;;;;;;;5032829;28;20025;-37
2022/05/31 05:54:02;;;;;;;12.50;7.22;;;;;;;;;;5024662;28;20113;-40
2022/05/31 05:56:28;;;;;;;14.40;6.68;;;;;;;;;;5018883;28;20025;-38
2022/05/31 05:58:54;;;;;;;9.57;6.53;;;;;;;;;;5028223;28;20021;-38
2022/05/31 06:01:19;;;;;;;10.27;5.75;;;;;;;;;;5023688;28;20018;-38
2022/05/31 06:03:53;;;;;;;11.65;6.32;;;;;;;;;;5023953;28;20033;-38
2022/05/31 06:06:20;;;;;;;11.50;6.43;;;;;;;;;;5027315;28;20021;-38
2022/05/31 06:08:50;;;;;;;11.40;5.70;;;;;;;;;;5031493;28;20051;-39
2022/05/31 06:11:26;;;;;;;10.63;4.93;;;;;;;;;;5033891;28;20026;-38
2022/05/31 06:13:59;;;;;;;8.25;4.60;;;;;;;;;;5027098;28;20021;-38
2022/05/31 06:16:26;;;;;;;7.13;4.80;;;;;;;;;;5026145;28;20053;-38
2022/05/31 06:18:54;;;;;;;8.25;5.30;;;;;;;;;;5028768;28;20053;-39
2022/05/31 06:21:21;;;;;;;8.27;4.35;;;;;;;;;;5025270;28;20027;-38
2022/05/31 06:23:48;;;;;;;7.68;4.50;;;;;;;;;;5023836;28;20034;-38
2022/05/31 06:26:14;;;;;;;11.32;5.93;;;;;;;;;;5027240;28;20021;-38
2022/05/31 06:28:39;;;;;;;8.32;4.63;;;;;;;;;;5021856;28;20536;-39
2022/05/31 06:31:05;;;;;;;8.65;4.18;;;;;;;;;;5023177;28;20026;-39
2022/05/31 06:33:30;;;;;;;6.00;3.45;;;;;;;;;;5020168;28;20435;-40
2022/05/31 06:35:55;;;;;;;7.93;3.90;;;;;;;;;;5022299;28;20061;-39
2022/05/31 06:38:21;;;;;;;6.97;3.78;;;;;;;;;;5049742;28;20053;-40
2022/05/31 06:40:46;;;;;;;5.07;3.30;;;;;;;;;;5023571;28;20050;-39
2022/05/31 06:43:12;;;;;;;6.40;4.30;;;;;;;;;;5031213;28;20095;-39
2022/05/31 06:45:37;;;;;;;6.45;3.97;;;;;;;;;;5020754;28;20025;-39
2022/05/31 06:48:03;;;;;;;11.68;4.82;;;;;;;;;;5019747;28;20025;-39
2022/05/31 06:50:28;;;;;;;6.18;3.75;;;;;;;;;;5042838;28;20477;-40
2022/05/31 06:58:21;;;;;;;7.97;5.05;;;;;;;;;;5022348;28;20028;-39
2022/05/31 07:00:46;;;;;;;21.92;6.20;;;;;;;;;;5032073;28;20396;-42
2022/05/31 07:03:12;;;;;;;14.68;6.35;;;;;;;;;;5022435;28;20061;-39
2022/05/31 07:05:41;;;;;;;11.50;5.93;;;;;;;;;;5019548;28;20100;-40
2022/05/31 07:08:06;;;;;;;17.42;6.93;;;;;;;;;;5025464;28;20663;-40
2022/05/31 07:10:32;;;;;;;11.95;6.40;;;;;;;;;;5016149;28;20034;-39
2022/05/31 07:12:57;;;;;;;12.88;6.47;;;;;;;;;;5013768;28;20018;-39
2022/05/31 07:15:24;;;;;;;14.85;6.53;;;;;;;;;;5020024;28;20423;-39
2022/05/31 07:17:50;;;;;;;12.02;6.63;;;;;;;;;;5025254;28;20018;-40
2022/05/31 07:20:15;;;;;;;10.90;5.38;;;;;;;;;;5031816;28;20024;-37
2022/05/31 07:22:41;;;;;;;15.38;6.43;;;;;;;;;;5064224;28;20117;-39
2022/05/31 07:25:07;;;;;;;10.20;5.40;;;;;;;;;;5024813;28;20467;-39
2022/05/31 07:27:33;;;;;;;10.95;5.95;;;;;;;;;;5030834;28;20120;-38
2022/05/31 07:29:59;;;;;;;11.05;6.40;;;;;;;;;;5025183;28;20033;-38
2022/05/31 07:32:24;;;;;;;13.27;6.35;;;;;;;;;;5022191;28;20389;-39
2022/05/31 07:34:50;;;;;;;8.82;5.60;;;;;;;;;;5020504;28;20025;-39
2022/05/31 07:37:15;;;;;;;9.82;5.20;;;;;;;;;;5032020;28;20025;-38
2022/05/31 07:39:41;;;;;;;13.30;5.75;;;;;;;;;;5024138;28;20129;-38
2022/05/31 07:42:06;;;;;;;12.13;5.20;;;;;;;;;;5021360;28;20596;-38
2022/05/31 07:44:32;;;;;;;13.40;5.88;;;;;;;;;;5063149;28;20087;-38
2022/05/31 07:46:59;;;;;;;16.90;5.93;;;;;;;;;;5031750;28;20057;-38
2022/05/31 07:49:24;;;;;;;16.83;6.60;;;;;;;;;;5030625;28;20061;-38
2022/05/31 07:51:50;;;;;;;12.25;5.70;;;;;;;;;;5031863;28;20496;-39
2022/05/31 07:54:15;;;;;;;13.10;5.88;;;;;;;;;;5032289;28;20084;-38
2022/05/31 07:56:40;;;;;;;15.30;6.03;;;;;;;;;;5031394;28;20453;-39
2022/05/31 07:59:06;;;;;;;13.73;6.40;;;;;;;;;;5031731;28;20105;-38
2022/05/31 08:01:31;;;;;;;15.80;6.38;;;;;;;;;;5031559;28;20022;-40
2022/05/31 08:03:57;;;;;;;13.30;6.43;;;;;;;;;;5027174;28;20030;-39
2022/05/31 08:06:24;;;;;;;17.38;7.43;;;;;;;;;;5027185;28;20037;-38
2022/05/31 08:08:50;;;;;;;18.40;6.53;;;;;;;;;;5021112;28;20037;-39
2022/05/31 08:11:19;;;;;;;15.20;7.18;;;;;;;;;;5028228;28;20030;-38
2022/05/31 08:13:45;;;;;;;19.08;7.53;;;;;;;;;;5031461;28;20441;-38
2022/05/31 08:16:11;;;;;;;18.70;8.10;;;;;;;;;;5033699;28;20021;-39
2022/05/31 08:18:38;;;;;;;21.02;9.45;;;;;;;;;;5033926;28;20025;-39
2022/05/31 08:21:05;;;;;;;20.52;9.60;;;;;;;;;;5034318;28;20030;-40
2022/05/31 08:23:30;;;;;;;16.45;8.95;;;;;;;;;;5034362;28;20469;-41
2022/05/31 08:25:56;;;;;;;21.58;9.60;;;;;;;;;;5034824;28;20099;-39
2022/05/31 08:28:22;;;;;;;21.30;9.82;;;;;;;;;;5032673;28;20017;-41
2022/05/31 08:30:48;;;;;;;18.88;8.68;;;;;;;;;;5032886;28;20036;-41
2022/05/31 08:33:14;;;;;;;16.90;10.20;;;;;;;;;;5033216;28;20427;-39
2022/05/31 08:35:39;;;;;;;17.52;9.13;;;;;;;;;;5030211;28;20029;-38
2022/05/31 08:38:05;;;;;;;17.58;9.55;;;;;;;;;;5033491;28;20503;-39
2022/05/31 08:40:36;;;;;;;23.10;10.52;;;;;;;;;;5034610;28;20116;-39
2022/05/31 08:43:05;;;;;;;20.45;9.30;;;;;;;;;;5032747;28;20033;-39
2022/05/31 08:45:33;;;;;;;17.55;9.48;;;;;;;;;;5027064;28;20022;-39
2022/05/31 08:48:02;;;;;;;19.10;10.13;;;;;;;;;;5028027;28;20385;-39
2022/05/31 08:53:17;;;;;;;24.30;11.13;;;;;;;;;;5021690;28;19912;-39
2022/05/31 08:58:38;;;;;;;20.67;9.18;;;;;;;;;;5024258;28;20064;-41
2022/05/31 09:01:04;;;;;;;19.83;9.45;;;;;;;;;;5033258;28;20018;-39
2022/05/31 09:03:50;;;;;;;20.40;10.40;;;;;;;;;;5034675;28;20056;-40
2022/05/31 09:06:18;;;;;;;25.58;11.05;;;;;;;;;;5033132;28;20022;-39
2022/05/31 09:08:54;;;;;;;27.95;11.80;;;;;;;;;;5032820;28;20723;-39
2022/05/31 09:11:29;;;;;;;25.67;11.50;;;;;;;;;;5027590;28;20029;-39
2022/05/31 09:14:05;;;;;;;21.02;11.70;;;;;;;;;;5021608;28;20034;-39
2022/05/31 09:16:36;;;;;;;22.33;11.40;;;;;;;;;;5017419;28;20376;-40
2022/05/31 09:19:05;;;;;;;20.90;9.98;;;;;;;;;;5016673;28;20029;-39
2022/05/31 09:21:38;;;;;;;21.20;10.48;;;;;;;;;;5019338;28;20062;-39
2022/05/31 09:24:04;;;;;;;32.40;12.20;;;;;;;;;;5029039;28;20029;-39
2022/05/31 09:26:51;;;;;;;16.45;9.95;;;;;;;;;;5033734;28;20026;-40
2022/05/31 09:29:20;;;;;;;17.10;9.35;;;;;;;;;;5029061;28;20105;-40
2022/05/31 09:31:46;;;;;;;;;;;;;;;;;;5028702;28;20109;-38
2022/05/31 09:34:17;;;;;;;23.77;11.33;;;;;;;;;;5032324;28;19984;-39
2022/05/31 09:36:47;;;;;;;21.40;11.15;;;;;;;;;;5027434;28;20040;-40
2022/05/31 09:39:19;;;;;;;19.13;9.10;;;;;;;;;;5029165;28;20024;-39
2022/05/31 09:41:51;;;;;;;15.43;8.82;;;;;;;;;;5021133;28;20116;-40
2022/05/31 09:44:23;;;;;;;16.52;8.63;;;;;;;;;;5028649;28;20028;-38
2022/05/31 09:47:01;;;;;;;14.98;8.02;;;;;;;;;;5031225;28;20026;-39
2022/05/31 09:49:33;;;;;;;126.60;14.80;;;;;;;;;;5016759;28;20042;-40
2022/05/31 09:51:59;;;;;;;12.75;7.28;;;;;;;;;;5030363;28;20036;-39
2022/05/31 09:57:20;;;;;;;12.65;6.88;;;;;;;;;;5022730;28;20486;-39
2022/05/31 09:59:50;;;;;;;14.55;7.32;;;;;;;;;;5020582;28;20029;-38
2022/05/31 10:02:18;;;;;;;15.98;8.60;;;;;;;;;;5027330;28;20042;-39
2022/05/31 10:04:44;;;;;;;13.60;7.47;;;;;;;;;;5022860;28;20026;-40
2022/05/31 10:07:10;;;;;;;14.13;7.28;;;;;;;;;;5021041;28;20025;-40
2022/05/31 10:09:35;;;;;;;17.25;8.25;;;;;;;;;;5020389;28;20071;-39
2022/05/31 10:12:07;;;;;;;13.18;7.00;;;;;;;;;;5025199;28;20029;-40
2022/05/31 10:14:33;;;;;;;15.38;7.57;;;;;;;;;;5027358;28;20030;-39
2022/05/31 10:17:17;;;;;;;16.35;6.82;;;;;;;;;;5024206;28;20020;-42
2022/05/31 10:19:43;;;;;;;17.15;7.03;;;;;;;;;;5020914;28;20021;-39
2022/05/31 10:22:18;;;;;;;12.25;6.20;;;;;;;;;;5021257;28;20079;-38
2022/05/31 10:24:43;;;;;;;13.63;6.85;;;;;;;;;;5027044;28;20029;-39
2022/05/31 10:27:10;;;;;;;15.27;6.60;;;;;;;;;;5027208;28;20125;-39
2022/05/31 10:29:40;;;;;;;12.85;5.32;;;;;;;;;;5025500;28;20053;-38
2022/05/31 10:32:24;;;;;;;10.77;5.82;;;;;;;;;;5024865;28;20025;-40
2022/05/31 10:35:04;;;;;;;12.50;5.72;;;;;;;;;;5034118;28;20034;-40
2022/05/31 10:37:32;;;;;;;;;;;;;;;;;;5022910;28;20504;-40
2022/05/31 10:40:00;;;;;;;8.68;4.93;;;;;;;;;;5025873;28;19928;-39
2022/05/31 10:42:26;;;;;;;11.48;5.82;;;;;;;;;;5026996;28;20060;-41
2022/05/31 10:44:53;;;;;;;13.85;5.70;;;;;;;;;;5018147;28;20644;-41
2022/05/31 10:47:19;;;;;;;10.15;5.63;;;;;;;;;;5028847;28;20025;-38
2022/05/31 10:49:45;;;;;;;9.18;4.65;;;;;;;;;;5028436;28;20033;-39
2022/05/31 10:52:10;;;;;;;9.98;5.35;;;;;;;;;;5023238;28;20022;-39
2022/05/31 10:54:37;;;;;;;10.13;4.80;;;;;;;;;;5024861;28;20099;-38
2022/05/31 10:57:27;;;;;;;9.77;4.70;;;;;;;;;;5029079;28;20476;-39
2022/05/31 10:59:54;;;;;;;8.93;5.00;;;;;;;;;;5020432;28;20041;-38
2022/05/31 11:02:37;;;;;;;8.15;4.40;;;;;;;;;;5025882;28;20835;-39
2022/05/31 11:05:03;;;;;;;6.20;4.18;;;;;;;;;;5018421;28;20405;-38
2022/05/31 11:07:28;;;;;;;10.50;4.32;;;;;;;;;;5025172;28;20034;-39
2022/05/31 11:12:50;;;;;;;8.48;4.32;;;;;;;;;;5019461;28;20397;-39
2022/05/31 11:15:22;;;;;;;6.32;4.15;;;;;;;;;;5027666;28;20022;-39
2022/05/31 11:17:47;;;;;;;7.55;4.32;;;;;;;;;;5027909;28;20032;-38
2022/05/31 11:20:37;;;;;;;7.93;4.25;;;;;;;;;;5026875;28;20097;-40
2022/05/31 11:23:16;;;;;;;91.68;6.97;;;;;;;;;;5030069;28;20091;-38
2022/05/31 11:25:51;;;;;;;7.28;3.40;;;;;;;;;;5027723;28;20129;-38
2022/05/31 11:28:23;;;;;;;9.95;3.50;;;;;;;;;;5019596;28;20452;-38
2022/05/31 11:31:06;;;;;;;7.38;3.85;;;;;;;;;;5030297;28;20029;-39
2022/05/31 11:33:43;;;;;;;6.10;3.20;;;;;;;;;;5061531;28;20033;-38
2022/05/31 11:36:28;;;;;;;8.50;4.35;;;;;;;;;;5026774;28;20041;-39
2022/05/31 11:38:53;;;;;;;5.18;3.00;;;;;;;;;;5024851;28;20025;-40
2022/05/31 11:41:27;;;;;;;8.02;3.03;;;;;;;;;;5031729;28;20048;-39
2022/05/31 11:43:56;;;;;;;6.78;2.92;;;;;;;;;;5026973;28;20025;-39
2022/05/31 11:46:33;;;;;;;6.20;3.05;;;;;;;;;;5034595;28;20104;-40
2022/05/31 11:49:01;;;;;;;6.50;3.65;;;;;;;;;;5030132;28;20041;-40
2022/05/31 11:51:37;;;;;;;6.32;3.55;;;;;;;;;;5030829;28;20017;-39
2022/05/31 11:54:12;;;;;;;6.63;3.67;;;;;;;;;;5035655;28;20029;-38
2022/05/31 11:56:42;;;;;;;8.00;3.28;;;;;;;;;;5031253;28;20049;-39
2022/05/31 11:59:14;;;;;;;4.18;3.33;;;;;;;;;;5029785;28;20380;-39
2022/05/31 12:01:42;;;;;;;4.63;3.03;;;;;;;;;;5035786;28;20030;-40
2022/05/31 12:04:17;;;;;;;4.53;2.42;;;;;;;;;;5033058;28;20041;-40
2022/05/31 12:06:45;;;;;;;5.45;2.92;;;;;;;;;;5035663;28;20021;-40
2022/05/31 12:09:15;;;;;;;16.23;4.22;;;;;;;;;;5025283;28;20049;-42
2022/05/31 12:11:47;;;;;;;4.60;2.58;;;;;;;;;;5035558;28;20021;-40
2022/05/31 12:14:13;;;;;;;4.22;2.30;;;;;;;;;;5030593;28;20022;-43
2022/05/31 12:16:39;;;;;;;3.55;2.35;;;;;;;;;;5033575;28;20029;-40
2022/05/31 12:19:20;;;;;;;2.95;2.25;;;;;;;;;;5033726;28;20017;-41
2022/05/31 12:22:04;;;;;;;6.90;2.78;;;;;;;;;;5033287;28;20032;-40
2022/05/31 12:24:33;;;;;;;2.95;1.98;;;;;;;;;;5020379;28;20038;-43
2022/05/31 12:27:04;;;;;;;2.58;2.03;;;;;;;;;;5033760;28;20018;-39
2022/05/31 12:29:39;;;;;;;3.83;1.73;;;;;;;;;;5032577;28;20063;-40
2022/05/31 12:32:26;;;;;;;3.47;1.80;;;;;;;;;;5033510;28;20013;-40
2022/05/31 12:34:51;;;;;;;2.97;2.00;;;;;;;;;;5019953;28;20439;-41
2022/05/31 12:37:16;;;;;;;4.95;2.50;;;;;;;;;;5026759;28;20052;-40
2022/05/31 12:39:43;;;;;;;2.25;1.77;;;;;;;;;;5029927;28;20132;-41
2022/05/31 12:42:14;;;;;;;1.83;1.58;;;;;;;;;;5032040;28;20043;-41
2022/05/31 12:44:41;;;;;;;2.78;1.70;;;;;;;;;;5024787;28;20037;-40
2022/05/31 12:47:18;;;;;;;5.97;2.08;;;;;;;;;;5026365;28;20018;-40
2022/05/31 12:49:52;;;;;;;2.83;1.90;;;;;;;;;;5026840;28;20068;-42
2022/05/31 12:54:49;;;;;;;3.20;2.40;;;;;;;;;;5033509;28;20456;-41
2022/05/31 12:57:22;;;;;;;2.63;2.30;;;;;;;;;;5029920;28;20022;-40
2022/05/31 12:59:48;;;;;;;5.30;2.10;;;;;;;;;;5022342;28;20032;-40
2022/05/31 13:02:22;;;;;;;4.47;2.20;;;;;;;;;;5029373;28;20033;-40
2022/05/31 13:04:52;;;;;;;3.45;1.88;;;;;;;;;;5034210;28;20041;-40
2022/05/31 13:07:19;;;;;;;17.10;2.83;;;;;;;;;;5019454;28;20036;-40
2022/05/31 13:09:46;;;;;;;4.20;1.80;;;;;;;;;;5027389;28;20057;-40
2022/05/31 13:20:57;;;;;;;3.33;2.03;;;;;;;;;;5017855;28;20044;-41
2022/05/31 13:23:24;;;;;;;3.38;1.67;;;;;;;;;;5019383;28;20045;-40
2022/05/31 13:25:51;;;;;;;3.45;2.22;;;;;;;;;;5000286;28;20026;-41
2022/05/31 13:28:22;;;;;;;3.35;1.95;;;;;;;;;;5019480;28;20025;-40
2022/05/31 13:30:49;;;;;;;4.40;1.65;;;;;;;;;;5030374;28;20057;-40
2022/05/31 13:33:17;;;;;;;5.55;1.77;;;;;;;;;;5027114;28;20550;-40
2022/05/31 13:35:42;;;;;;;5.35;2.17;;;;;;;;;;5016948;28;20517;-39
2022/05/31 13:38:20;;;;;;;4.30;1.98;;;;;;;;;;5028067;28;20036;-41
2022/05/31 13:40:48;;;;;;;2.60;1.77;;;;;;;;;;5022117;28;20137;-39
2022/05/31 13:43:23;;;;;;;5.00;1.70;;;;;;;;;;5039066;28;20465;-40
2022/05/31 13:45:49;;;;;;;4.68;2.17;;;;;;;;;;5017418;28;20026;-39
2022/05/31 13:48:21;;;;;;;3.47;1.80;;;;;;;;;;5022488;28;20017;-39
2022/05/31 13:50:52;;;;;;;4.95;1.80;;;;;;;;;;5030721;28;20053;-38
2022/05/31 13:53:18;;;;;;;2.55;1.60;;;;;;;;;;5033871;28;20017;-39
2022/05/31 13:55:44;;;;;;;3.00;1.88;;;;;;;;;;5018787;28;20017;-39
2022/05/31 13:58:11;;;;;;;5.10;1.98;;;;;;;;;;5026494;28;20472;-39
2022/05/31 14:00:45;;;;;;;2.20;1.52;;;;;;;;;;5030600;28;20033;-39
2022/05/31 14:03:21;;;;;;;2.30;1.70;;;;;;;;;;5021867;28;20033;-39
2022/05/31 14:05:50;;;;;;;3.28;1.40;;;;;;;;;;5020500;28;20164;-39
2022/05/31 14:08:21;;;;;;;4.95;1.40;;;;;;;;;;5028042;28;20053;-38
2022/05/31 14:10:48;;;;;;;3.78;1.73;;;;;;;;;;5020962;28;20083;-39
2022/05/31 14:13:20;;;;;;;70.88;22.17;;;;;;;;;;5024564;28;20021;-38
2022/05/31 14:15:46;;;;;;;7.90;2.17;;;;;;;;;;5029219;28;20071;-38
2022/05/31 14:18:12;;;;;;;109.47;102.03;;;;;;;;;;5023664;28;20164;-38
2022/05/31 14:20:42;;;;;;;44.00;13.55;;;;;;;;;;5012757;28;20088;-39
2022/05/31 14:23:09;;;;;;;5.38;2.20;;;;;;;;;;5029076;28;20041;-40
2022/05/31 14:25:35;;;;;;;3.10;2.08;;;;;;;;;;5028721;28;20112;-39
2022/05/31 14:28:02;;;;;;;7.18;1.85;;;;;;;;;;5024858;28;20137;-37
2022/05/31 14:30:47;;;;;;;2.05;1.40;;;;;;;;;;5020755;28;20108;-38
2022/05/31 14:33:13;;;;;;;2.80;1.80;;;;;;;;;;5025706;28;20084;-39
2022/05/31 14:35:46;;;;;;;2.17;1.88;;;;;;;;;;5020298;28;20029;-39
2022/05/31 14:38:36;;;;;;;8.85;2.28;;;;;;;;;;5017205;28;20033;-39
2022/05/31 14:43:30;;;;;;;5.72;2.17;;;;;;;;;;5066690;28;20393;-42
2022/05/31 14:45:55;;;;;;;7.65;2.25;;;;;;;;;;5067174;28;20029;-40
2022/05/31 14:48:36;;;;;;;5.88;2.00;;;;;;;;;;5059962;28;20036;-39
2022/05/31 14:51:12;;;;;;;2.38;1.83;;;;;;;;;;5062821;28;20103;-39
2022/05/31 14:53:39;;;;;;;6.07;2.22;;;;;;;;;;5066933;28;20547;-41
2022/05/31 14:56:17;;;;;;;5.55;2.08;;;;;;;;;;5067006;28;20029;-41
2022/05/31 14:58:45;;;;;;;10.48;1.85;;;;;;;;;;5066403;28;20499;-40
2022/05/31 15:01:16;;;;;;;6.00;1.70;;;;;;;;;;5067848;28;20017;-39
2022/05/31 15:03:47;;;;;;;5.20;2.25;;;;;;;;;;5066792;28;20021;-39
2022/05/31 15:06:22;;;;;;;2.45;1.80;;;;;;;;;;5067555;28;20024;-41
2022/05/31 15:08:58;;;;;;;3.72;1.75;;;;;;;;;;5067696;28;20049;-40
2022/05/31 15:19:43;;;;;;;4.70;1.95;;;;;;;;;;5068908;28;20036;-41
2022/05/31 15:22:09;;;;;;;4.15;1.80;;;;;;;;;;5067713;28;20033;-38